createdAt,value
2023-05-22T00:01:51.855Z,101014.81
2023-05-22T00:05:58.832Z,101009.94
2023-05-22T00:10:01.071Z,101013.84
2023-05-22T00:14:03.172Z,101014.00
2023-05-22T00:18:06.337Z,101009.66
2023-05-22T00:22:09.592Z,101004.50
2023-05-22T00:26:16.432Z,101004.56
2023-05-22T00:30:18.600Z,101003.25
2023-05-22T00:34:20.774Z,101005.19
2023-05-22T00:38:34.426Z,101005.50
2023-05-22T00:42:36.609Z,101009.88
2023-05-22T00:46:38.704Z,101011.44
2023-05-22T00:50:41.880Z,101006.00
2023-05-22T00:54:44.251Z,101004.09
2023-05-22T00:58:46.807Z,101004.09
2023-05-22T01:02:49.161Z,101002.44
2023-05-22T01:06:51.040Z,101004.38
2023-05-22T01:11:22.149Z,101004.66
2023-05-22T01:15:43.152Z,101008.41
2023-05-22T01:20:09.811Z,101007.84
2023-05-22T01:24:32.874Z,101002.94
2023-05-22T01:29:07.065Z,101006.22
2023-05-22T01:33:12.307Z,101007.66
2023-05-22T01:37:15.232Z,101012.06
2023-05-22T01:41:17.346Z,101017.94
2023-05-22T01:45:21.310Z,101013.56
2023-05-22T01:49:23.553Z,101019.91
2023-05-22T01:54:06.015Z,101034.31
2023-05-22T01:58:24.497Z,101012.44
2023-05-22T02:02:28.562Z,101020.44
2023-05-22T02:06:33.401Z,101019.00
2023-05-22T02:10:37.844Z,101021.63
2023-05-22T02:14:42.522Z,101021.09
2023-05-22T02:18:45.411Z,101016.13
2023-05-22T02:22:48.020Z,101022.81
2023-05-22T02:26:50.148Z,101022.81
2023-05-22T02:30:52.743Z,101018.34
2023-05-22T02:34:54.957Z,101031.66
2023-05-22T02:38:57.084Z,101018.16
2023-05-22T02:42:59.210Z,101017.31
2023-05-22T02:47:02.252Z,101019.78
2023-05-22T02:51:04.813Z,101010.59
2023-05-22T02:55:08.245Z,101008.41
2023-05-22T02:59:10.396Z,101008.97
2023-05-22T03:03:12.808Z,101002.78
2023-05-22T03:07:17.059Z,101000.84
2023-05-22T03:11:18.856Z,101001.41
2023-05-22T03:15:21.465Z,100997.06
2023-05-22T03:19:26.313Z,100999.28
2023-05-22T03:23:28.586Z,101014.22
2023-05-22T03:27:30.995Z,101016.25
2023-05-22T03:31:33.796Z,101013.09
2023-05-22T03:35:48.604Z,101008.44
2023-05-22T03:39:50.766Z,101012.47
2023-05-22T03:44:00.796Z,101014.13
2023-05-22T03:48:02.884Z,101001.47
2023-05-22T03:52:05.306Z,101004.28
2023-05-22T03:56:07.573Z,101001.41
2023-05-22T04:00:10.145Z,101002.06
2023-05-22T04:04:16.603Z,100993.06
2023-05-22T04:08:18.711Z,100993.13
2023-05-22T04:12:20.935Z,100992.66
2023-05-22T04:16:24.838Z,100993.41
2023-05-22T04:20:27.234Z,100993.06
2023-05-22T04:24:29.232Z,100994.59
2023-05-22T04:28:34.873Z,100994.41
2023-05-22T04:32:37.112Z,101013.78
2023-05-22T04:36:39.153Z,101011.72
2023-05-22T04:40:41.424Z,101018.13
2023-05-22T04:44:43.751Z,101023.00
2023-05-22T04:48:47.278Z,101036.56
2023-05-22T04:52:51.046Z,101036.28
2023-05-22T04:56:53.189Z,101046.84
2023-05-22T05:00:57.785Z,101074.00
2023-05-22T05:04:59.964Z,101081.75
2023-05-22T05:09:02.083Z,101090.16
2023-05-22T05:13:04.633Z,101101.66
2023-05-22T05:17:11.359Z,101113.69
2023-05-22T05:21:15.166Z,101116.06
2023-05-22T05:25:18.114Z,101118.28
2023-05-22T05:29:20.275Z,101108.06
2023-05-22T05:33:37.368Z,101119.72
2023-05-22T05:37:59.670Z,101120.47
2023-05-22T05:42:03.167Z,101116.59
2023-05-22T05:46:06.127Z,101108.28
2023-05-22T05:50:09.713Z,101120.38
2023-05-22T05:54:13.499Z,101124.28
2023-05-22T05:58:15.759Z,101118.94
2023-05-22T06:02:28.968Z,101122.44
2023-05-22T06:06:36.736Z,101123.50
2023-05-22T06:10:50.668Z,101114.09
2023-05-22T06:15:08.744Z,101112.66
2023-05-22T06:19:12.891Z,101115.47
2023-05-22T06:23:15.198Z,101108.53
2023-05-22T06:27:17.595Z,101107.09
2023-05-22T06:31:20.291Z,101107.84
2023-05-22T06:35:24.291Z,101101.59
2023-05-22T06:39:26.768Z,101091.41
2023-05-22T06:43:41.334Z,101098.72
2023-05-22T06:47:47.343Z,101098.44
2023-05-22T06:51:49.921Z,101102.59
2023-05-22T06:55:52.562Z,101101.31
2023-05-22T07:00:12.614Z,101089.25
2023-05-22T07:04:32.565Z,101091.91
2023-05-22T07:08:48.121Z,101090.66
2023-05-22T07:12:50.132Z,101089.53
2023-05-22T07:16:52.764Z,101080.28
2023-05-22T07:21:01.636Z,101077.00
2023-05-22T07:25:04.905Z,101079.09
2023-05-22T07:29:08.872Z,101081.59
2023-05-22T07:33:11.711Z,101078.41
2023-05-22T07:37:14.458Z,101070.94
2023-05-22T07:41:19.161Z,101059.72
2023-05-22T07:45:21.907Z,101063.13
2023-05-22T07:49:26.637Z,101061.00
2023-05-22T07:53:28.823Z,101055.47
2023-05-22T07:57:36.336Z,101045.56
2023-05-22T08:01:46.549Z,101046.22
2023-05-22T08:05:48.731Z,101056.97
2023-05-22T08:09:51.081Z,101049.22
2023-05-22T08:13:53.062Z,101052.25
2023-05-22T08:17:55.188Z,101038.00
2023-05-22T08:21:58.221Z,101051.25
2023-05-22T08:26:00.577Z,101047.66
2023-05-22T08:30:04.578Z,101039.44
2023-05-22T08:34:07.275Z,101045.22
2023-05-22T08:38:09.325Z,101046.38
2023-05-22T08:42:11.547Z,101044.09
2023-05-22T08:46:16.234Z,101037.59
2023-05-22T08:50:19.702Z,101044.09
2023-05-22T08:54:23.247Z,101032.53
2023-05-22T08:58:26.848Z,101034.34
2023-05-22T09:02:28.944Z,101034.56
2023-05-22T09:06:31.865Z,101027.03
2023-05-22T09:10:35.027Z,101028.34
2023-05-22T09:14:41.657Z,101026.75
2023-05-22T09:18:44.514Z,101021.56
2023-05-22T09:22:47.423Z,101020.47
2023-05-22T09:26:52.479Z,101020.66
2023-05-22T09:30:55.640Z,101014.19
2023-05-22T09:35:04.721Z,101007.31
2023-05-22T09:39:07.495Z,101005.69
2023-05-22T09:43:10.930Z,101005.47
2023-05-22T09:47:13.046Z,101004.56
2023-05-22T09:51:16.519Z,101005.31
2023-05-22T09:55:21.647Z,100993.66
2023-05-22T09:59:30.077Z,101000.09
2023-05-22T10:03:34.881Z,101002.94
2023-05-22T10:07:44.018Z,101005.78
2023-05-22T10:11:47.392Z,100996.91
2023-05-22T10:15:50.561Z,100997.75
2023-05-22T10:19:54.373Z,100985.53
2023-05-22T10:23:57.906Z,100984.13
2023-05-22T10:28:00.529Z,100978.22
2023-05-22T10:32:40.580Z,100977.53
2023-05-22T10:37:13.240Z,100981.72
2023-05-22T10:41:19.458Z,100980.22
2023-05-22T10:45:21.676Z,100980.63
2023-05-22T10:49:24.224Z,100980.78
2023-05-22T10:53:28.111Z,100980.69
2023-05-22T10:57:35.741Z,100982.00
2023-05-22T11:01:40.217Z,100969.34
2023-05-22T11:05:56.509Z,100969.38
2023-05-22T11:10:01.362Z,100963.66
2023-05-22T11:14:04.308Z,100958.47
2023-05-22T11:18:06.858Z,100965.91
2023-05-22T11:22:09.292Z,100959.41
2023-05-22T11:26:19.917Z,100954.25
2023-05-22T11:30:26.183Z,100950.09
2023-05-22T11:34:28.417Z,100940.66
2023-05-22T11:38:30.741Z,100937.50
2023-05-22T11:42:33.564Z,100935.53
2023-05-22T11:46:35.883Z,100929.13
2023-05-22T11:50:42.216Z,100930.44
2023-05-22T11:54:47.115Z,100931.00
2023-05-22T11:58:49.947Z,100920.88
2023-05-22T12:02:52.275Z,100920.91
2023-05-22T12:06:55.307Z,100924.88
2023-05-22T12:10:57.742Z,100929.44
2023-05-22T12:14:59.776Z,100916.38
2023-05-22T12:19:09.013Z,100911.34
2023-05-22T12:23:12.407Z,100921.09
2023-05-22T12:27:15.388Z,100910.22
2023-05-22T12:31:22.194Z,100899.88
2023-05-22T12:35:25.306Z,100900.56
2023-05-22T12:39:28.980Z,100894.81
2023-05-22T12:43:31.199Z,100894.00
2023-05-22T12:47:33.265Z,100889.03
2023-05-22T12:51:35.427Z,100895.09
2023-05-22T12:55:38.571Z,100883.53
2023-05-22T12:59:40.806Z,100878.00
2023-05-22T13:03:43.005Z,100876.41
2023-05-22T13:07:45.095Z,100885.03
2023-05-22T13:11:48.057Z,100871.09
2023-05-22T13:15:50.318Z,100880.81
2023-05-22T13:19:54.058Z,100873.13
2023-05-22T13:23:56.660Z,100873.50
2023-05-22T13:28:02.063Z,100854.44
2023-05-22T13:32:04.697Z,100864.28
2023-05-22T13:36:07.039Z,100856.94
2023-05-22T13:40:09.896Z,100852.44
2023-05-22T13:44:12.067Z,100857.22
2023-05-22T13:48:14.242Z,100853.22
2023-05-22T13:52:16.407Z,100856.59
2023-05-22T13:56:18.601Z,100849.50
2023-05-22T14:00:21.171Z,100840.78
2023-05-22T14:04:23.832Z,100838.91
2023-05-22T14:08:25.925Z,100842.28
2023-05-22T14:12:28.092Z,100844.28
2023-05-22T14:16:30.201Z,100846.09
2023-05-22T14:20:32.285Z,100834.56
2023-05-22T14:24:34.492Z,100833.91
2023-05-22T14:28:36.536Z,100833.88
2023-05-22T14:32:38.980Z,100832.88
2023-05-22T14:36:41.187Z,100825.94
2023-05-22T14:40:43.284Z,100825.59
2023-05-22T14:44:45.361Z,100822.16
2023-05-22T14:48:47.487Z,100816.31
2023-05-22T14:52:49.939Z,100806.06
2023-05-22T14:56:52.037Z,100818.47
2023-05-22T15:00:54.147Z,100815.78
2023-05-22T15:04:56.440Z,100807.41
2023-05-22T15:08:58.525Z,100813.63
2023-05-22T15:13:00.678Z,100810.28
2023-05-22T15:17:02.806Z,100803.84
2023-05-22T15:21:04.999Z,100805.53
2023-05-22T15:25:15.278Z,100802.41
2023-05-22T15:29:18.167Z,100801.38
2023-05-22T15:33:21.600Z,100798.16
2023-05-22T15:37:23.893Z,100790.28
2023-05-22T15:41:26.679Z,100785.75
2023-05-22T15:45:28.858Z,100786.50
2023-05-22T15:49:31.579Z,100787.16
2023-05-22T15:53:33.735Z,100782.75
2023-05-22T15:57:35.724Z,100773.84
2023-05-22T16:01:37.879Z,100768.25
2023-05-22T16:05:40.626Z,100784.81
2023-05-22T16:09:43.411Z,100770.06
2023-05-22T16:13:45.724Z,100769.09
2023-05-22T16:17:47.853Z,100777.03
2023-05-22T16:21:50.005Z,100764.97
2023-05-22T16:25:52.108Z,100766.44
2023-05-22T16:29:54.221Z,100767.06
2023-05-22T16:33:56.364Z,100754.06
2023-05-22T16:37:58.834Z,100754.97
2023-05-22T16:42:01.494Z,100761.81
2023-05-22T16:46:04.083Z,100758.63
2023-05-22T16:50:07.068Z,100755.03
2023-05-22T16:54:09.041Z,100768.03
2023-05-22T16:58:12.805Z,100763.09
2023-05-22T17:02:15.032Z,100763.81
2023-05-22T17:06:20.820Z,100767.41
2023-05-22T17:10:23.122Z,100769.88
2023-05-22T17:14:26.391Z,100766.13
2023-05-22T17:18:28.421Z,100767.91
2023-05-22T17:22:30.617Z,100765.22
2023-05-22T17:26:34.294Z,100772.72
2023-05-22T17:30:36.464Z,100774.59
2023-05-22T17:34:38.431Z,100782.00
2023-05-22T17:38:40.719Z,100774.56
2023-05-22T17:42:42.748Z,100778.25
2023-05-22T17:46:44.874Z,100779.97
2023-05-22T17:50:47.457Z,100774.13
2023-05-22T17:54:49.990Z,100775.53
2023-05-22T17:58:52.744Z,100776.63
2023-05-22T18:02:54.927Z,100772.53
2023-05-22T18:06:57.082Z,100764.78
2023-05-22T18:10:59.226Z,100768.59
2023-05-22T18:15:01.332Z,100769.94
2023-05-22T18:19:04.016Z,100770.19
2023-05-22T18:23:06.220Z,100765.03
2023-05-22T18:27:08.283Z,100757.25
2023-05-22T18:31:10.391Z,100761.38
2023-05-22T18:35:12.438Z,100767.22
2023-05-22T18:39:14.866Z,100759.06
2023-05-22T18:43:17.083Z,100760.47
2023-05-22T18:47:19.179Z,100757.31
2023-05-22T18:51:22.862Z,100760.25
2023-05-22T18:55:24.955Z,100763.22
2023-05-22T18:59:27.061Z,100751.00
2023-05-22T19:03:29.872Z,100761.56
2023-05-22T19:07:32.800Z,100763.84
2023-05-22T19:11:36.284Z,100764.81
2023-05-22T19:15:38.440Z,100756.97
2023-05-22T19:19:41.564Z,100760.28
2023-05-22T19:23:45.819Z,100750.16
2023-05-22T19:27:48.105Z,100738.22
2023-05-22T19:31:50.364Z,100741.19
2023-05-22T19:35:53.247Z,100713.22
2023-05-22T19:39:55.355Z,100728.38
2023-05-22T19:43:57.495Z,100724.78
2023-05-22T19:48:00.498Z,100702.72
2023-05-22T19:52:04.820Z,100715.06
2023-05-22T19:56:06.980Z,100709.19
2023-05-22T20:00:11.097Z,100695.63
2023-05-22T20:04:14.304Z,100703.97
2023-05-22T20:08:16.570Z,100706.63
2023-05-22T20:12:18.751Z,100689.41
2023-05-22T20:16:21.353Z,100681.66
2023-05-22T20:20:26.386Z,100677.50
2023-05-22T20:24:28.410Z,100669.56
2023-05-22T20:28:31.509Z,100674.00
2023-05-22T20:32:34.209Z,100669.44
2023-05-22T20:36:36.591Z,100661.94
2023-05-22T20:40:38.326Z,100661.59
2023-05-22T20:44:41.362Z,100640.44
2023-05-22T20:48:46.931Z,100639.38
2023-05-22T20:52:49.086Z,100643.44
2023-05-22T20:56:52.735Z,100635.00
2023-05-22T21:00:54.800Z,100638.03
2023-05-22T21:04:56.903Z,100627.88
2023-05-22T21:09:01.541Z,100621.94
2023-05-22T21:13:03.574Z,100627.13
2023-05-22T21:17:06.176Z,100622.91
2023-05-22T21:21:08.209Z,100620.66
2023-05-22T21:25:10.510Z,100620.47
2023-05-22T21:29:12.789Z,100611.56
2023-05-22T21:33:14.861Z,100607.88
2023-05-22T21:37:17.890Z,100601.13
2023-05-22T21:41:19.999Z,100596.53
2023-05-22T21:45:22.608Z,100597.09
2023-05-22T21:49:24.627Z,100609.09
2023-05-22T21:53:26.673Z,100602.09
2023-05-22T21:57:28.865Z,100606.47
2023-05-22T22:01:30.924Z,100609.22
2023-05-22T22:05:33.095Z,100603.84
2023-05-22T22:09:35.121Z,100598.03
2023-05-22T22:13:37.315Z,100604.13
2023-05-22T22:17:40.653Z,100606.19
2023-05-22T22:21:42.876Z,100599.53
2023-05-22T22:25:44.975Z,100598.84
2023-05-22T22:29:47.152Z,100597.69
2023-05-22T22:33:49.177Z,100595.22
2023-05-22T22:37:51.413Z,100586.66
2023-05-22T22:41:53.437Z,100593.16
2023-05-22T22:45:55.947Z,100596.97
2023-05-22T22:49:58.355Z,100594.19
2023-05-22T22:54:00.463Z,100599.88
2023-05-22T22:58:02.710Z,100593.25
2023-05-22T23:02:05.016Z,100580.97
2023-05-22T23:06:07.605Z,100591.00
2023-05-22T23:10:09.986Z,100589.03
2023-05-22T23:14:13.494Z,100574.19
2023-05-22T23:18:15.540Z,100566.91
2023-05-22T23:22:18.945Z,100562.19
2023-05-22T23:26:21.024Z,100567.13
2023-05-22T23:30:23.172Z,100558.19
2023-05-22T23:34:25.353Z,100558.38
2023-05-22T23:38:27.811Z,100554.16
2023-05-22T23:42:29.944Z,100561.78
2023-05-22T23:46:32.675Z,100558.88
2023-05-22T23:50:34.762Z,100557.06
2023-05-22T23:54:36.841Z,100564.59
2023-05-22T23:58:39.031Z,100553.31
